Riley Cove, New York
Current Conditions -  °F | °C
As of 3:51 AM on Sunday 23 Nov 2014 (Local Time) from KALB Reporting Station
Light Rain Light Rain  
Wind Chill: 33°   Ceiling: 3800
Heat Index: 38°   Visibility: 9mi
Dew Point: 31°   Wind: 7mph
Humidity: 76%   Direction: 160°SSE
Pressure: 30.08"   Gusts: NA
Location:  43.002°N, 73.8759°W
Report Text: KALB 230851Z 16006KT 9SM -RA OVC038 03/M01 A3008 RMK AO2 SLP189 P0002 60010 I3000 T00331006 58003
Loading
Personal Weather Stations






























Interactive Weather Map New forecast layout! Learn more

10-Day Weather Forecast

Advertisements
Track Severe Weather on mobile